createdAt,value
2019-04-23T00:01:25.568Z,51.09
2019-04-23T00:03:40.403Z,51.17
2019-04-23T00:06:18.904Z,51.26
2019-04-23T00:08:48.751Z,51.35
2019-04-23T00:11:15.736Z,51.57
2019-04-23T00:13:44.182Z,51.85
2019-04-23T00:16:14.002Z,51.84
2019-04-23T00:18:46.438Z,51.75
2019-04-23T00:21:20.734Z,51.85
2019-04-23T00:24:07.778Z,51.91
2019-04-23T00:26:35.480Z,52.07
2019-04-23T00:31:24.563Z,52.14
2019-04-23T00:33:50.673Z,52.32
2019-04-23T00:36:25.895Z,52.35
2019-04-23T00:38:52.207Z,52.48
2019-04-23T00:41:25.340Z,52.78
2019-04-23T00:43:54.833Z,53.06
2019-04-23T00:46:22.269Z,52.95
2019-04-23T00:49:03.143Z,53.13
2019-04-23T00:51:27.719Z,53.25
2019-04-23T00:53:51.432Z,53.34
2019-04-23T00:56:42.087Z,53.35
2019-04-23T00:58:54.959Z,53.48
2019-04-23T01:01:26.950Z,53.71
2019-04-23T01:04:04.783Z,53.97
2019-04-23T01:06:23.636Z,53.94
2019-04-23T01:08:55.165Z,54.02
2019-04-23T01:11:19.881Z,54.20
2019-04-23T01:14:00.809Z,54.31
2019-04-23T01:16:21.254Z,54.24
2019-04-23T01:18:58.099Z,54.43
2019-04-23T01:21:11.691Z,54.47
2019-04-23T01:24:03.694Z,54.43
2019-04-23T01:27:03.008Z,54.50
2019-04-23T01:29:28.291Z,54.83
2019-04-23T01:32:02.798Z,54.74
2019-04-23T01:34:31.438Z,54.84
2019-04-23T01:36:56.385Z,54.89
2019-04-23T01:39:23.287Z,55.08
2019-04-23T01:42:05.198Z,55.08
2019-04-23T01:44:33.738Z,55.23
2019-04-23T01:49:35.986Z,55.23
2019-04-23T01:52:04.671Z,55.35
2019-04-23T01:54:30.567Z,55.42
2019-04-23T01:57:01.365Z,55.53
2019-04-23T01:59:31.859Z,55.66
2019-04-23T02:01:58.831Z,55.79
2019-04-23T02:04:28.219Z,55.95
2019-04-23T02:07:06.207Z,56.05
2019-04-23T02:12:04.492Z,56.30
2019-04-23T02:14:37.859Z,56.64
2019-04-23T02:17:05.965Z,56.46
2019-04-23T02:19:38.761Z,56.53
2019-04-23T02:22:06.579Z,56.53
2019-04-23T02:24:41.296Z,56.86
2019-04-23T02:27:12.179Z,56.83
2019-04-23T02:29:55.291Z,56.98
2019-04-23T02:32:09.190Z,57.00
2019-04-23T02:34:59.026Z,57.37
2019-04-23T02:37:24.453Z,57.61
2019-04-23T02:39:57.362Z,57.43
2019-04-23T02:42:28.755Z,57.51
2019-04-23T02:44:51.290Z,57.54
2019-04-23T02:47:30.000Z,57.67
2019-04-23T02:50:01.742Z,57.81
2019-04-23T02:54:50.892Z,58.06
2019-04-23T02:57:14.000Z,58.14
2019-04-23T03:00:07.976Z,58.24
2019-04-23T03:02:37.132Z,58.38
2019-04-23T03:08:17.058Z,58.78
2019-04-23T03:13:32.539Z,59.07
2019-04-23T03:21:25.871Z,59.62
2019-04-23T03:37:08.658Z,59.96
2019-04-23T03:39:17.717Z,60.11
2019-04-23T03:41:43.350Z,60.10
2019-04-23T03:44:01.599Z,60.20
2019-04-23T03:46:40.272Z,60.44
2019-04-23T03:49:21.388Z,60.38
2019-04-23T03:51:43.621Z,60.39
2019-04-23T03:56:55.475Z,60.60
2019-04-23T04:06:59.521Z,60.44
2019-04-23T04:12:01.693Z,60.53
2019-04-23T04:14:30.100Z,60.50
2019-04-23T04:26:52.377Z,60.26
2019-04-23T04:34:40.070Z,60.12
2019-04-23T04:36:58.565Z,59.93
2019-04-23T04:39:19.857Z,59.90
2019-04-23T04:41:54.887Z,59.83
2019-04-23T04:44:38.239Z,60.10
2019-04-23T04:46:47.799Z,59.76
2019-04-23T04:54:14.165Z,59.53
2019-04-23T04:56:42.627Z,59.26
2019-04-23T04:59:18.147Z,59.22
2019-04-23T05:01:48.721Z,58.98
2019-04-23T05:04:21.776Z,58.96
2019-04-23T05:07:11.026Z,58.90
2019-04-23T05:09:43.963Z,58.80
2019-04-23T05:11:54.176Z,58.51
2019-04-23T05:14:13.498Z,58.46
2019-04-23T05:16:54.778Z,58.32
2019-04-23T05:19:31.619Z,58.43
2019-04-23T05:21:53.968Z,58.23
2019-04-23T05:24:21.871Z,58.06
2019-04-23T05:26:44.518Z,57.89
2019-04-23T05:29:31.373Z,57.74
2019-04-23T05:31:42.013Z,57.70
2019-04-23T05:34:14.828Z,57.42
2019-04-23T05:36:45.673Z,57.21
2019-04-23T05:39:20.836Z,57.09
2019-04-23T05:41:45.609Z,56.99
2019-04-23T05:44:21.193Z,57.00
2019-04-23T05:46:44.988Z,56.79
2019-04-23T05:49:22.731Z,56.25
2019-04-23T05:54:22.609Z,56.00
2019-04-23T05:57:01.883Z,55.89
2019-04-23T05:59:21.621Z,55.76
2019-04-23T06:09:25.176Z,55.20
2019-04-23T06:11:57.036Z,55.08
2019-04-23T06:14:24.995Z,55.02
2019-04-23T06:17:00.124Z,54.34
2019-04-23T06:19:20.764Z,54.49
2019-04-23T06:22:18.458Z,54.01
2019-04-23T06:24:29.233Z,53.96
2019-04-23T06:27:05.091Z,53.82
2019-04-23T06:29:39.378Z,53.50
2019-04-23T06:31:55.266Z,53.54
2019-04-23T06:37:00.472Z,53.16
2019-04-23T06:39:34.757Z,52.92
2019-04-23T06:44:30.816Z,53.01
2019-04-23T06:47:03.245Z,52.84
2019-04-23T06:49:37.830Z,52.50
2019-04-23T06:52:17.598Z,51.89
2019-04-23T07:02:26.161Z,51.59
2019-04-23T07:04:47.708Z,51.38
2019-04-23T07:09:34.934Z,51.32
2019-04-23T07:12:07.700Z,51.24
2019-04-23T07:14:43.981Z,50.86
2019-04-23T07:17:03.852Z,50.56
2019-04-23T07:19:39.302Z,50.55
2019-04-23T07:22:14.901Z,50.10
2019-04-23T07:24:32.798Z,49.96
2019-04-23T07:27:07.579Z,49.59
2019-04-23T07:29:48.568Z,49.64
2019-04-23T07:32:05.601Z,49.47
2019-04-23T07:34:39.796Z,49.08
2019-04-23T07:40:07.886Z,48.92
2019-04-23T07:48:06.503Z,48.41
2019-04-23T07:50:41.345Z,48.42
2019-04-23T07:53:10.419Z,48.36
2019-04-23T07:55:43.344Z,47.60
2019-04-23T07:58:06.535Z,47.25
2019-04-23T08:00:41.504Z,47.02
2019-04-23T08:03:10.870Z,47.08
2019-04-23T08:08:07.492Z,47.03
2019-04-23T08:10:54.544Z,46.81
2019-04-23T08:15:43.702Z,46.37
2019-04-23T08:18:13.478Z,46.01
2019-04-23T08:20:42.230Z,46.06
2019-04-23T08:23:34.786Z,45.94
2019-04-23T08:29:05.891Z,45.38
2019-04-23T08:31:15.148Z,45.33
2019-04-23T08:33:49.839Z,45.03
2019-04-23T08:36:20.146Z,44.48
2019-04-23T08:38:55.474Z,44.48
2019-04-23T08:44:21.498Z,44.47
2019-04-23T08:46:56.957Z,44.43
2019-04-23T08:49:29.647Z,44.46
2019-04-23T08:54:39.427Z,43.92
2019-04-23T08:56:55.278Z,43.86
2019-04-23T08:59:37.238Z,43.45
2019-04-23T09:02:09.277Z,42.59
2019-04-23T09:04:23.915Z,42.97
2019-04-23T09:07:07.015Z,42.79
2019-04-23T09:09:29.114Z,42.79
2019-04-23T09:11:54.479Z,43.10
2019-04-23T09:14:20.530Z,42.66
2019-04-23T09:16:59.477Z,41.80
2019-04-23T09:19:53.113Z,41.08
2019-04-23T09:22:03.834Z,40.47
2019-04-23T09:24:26.150Z,40.85
2019-04-23T09:26:59.637Z,40.84
2019-04-23T09:29:32.572Z,40.46
2019-04-23T09:34:43.144Z,39.80
2019-04-23T09:37:27.569Z,39.74
2019-04-23T09:39:52.865Z,39.22
2019-04-23T09:42:16.070Z,39.39
2019-04-23T09:47:57.321Z,39.58
2019-04-23T09:50:20.206Z,39.18
2019-04-23T09:53:04.938Z,38.64
2019-04-23T09:57:55.591Z,38.58
2019-04-23T10:00:33.795Z,38.79
2019-04-23T10:02:41.225Z,38.59
2019-04-23T10:05:11.277Z,38.49
2019-04-23T10:07:39.686Z,38.12
2019-04-23T10:09:57.377Z,37.78
2019-04-23T10:12:26.278Z,37.79
2019-04-23T10:15:07.216Z,38.28
2019-04-23T10:17:26.269Z,37.69
2019-04-23T10:19:55.216Z,38.01
2019-04-23T10:22:25.149Z,38.19
2019-04-23T10:24:55.098Z,37.73
2019-04-23T10:27:25.167Z,37.26
2019-04-23T10:29:54.103Z,37.23
2019-04-23T10:32:23.369Z,37.33
2019-04-23T10:35:03.570Z,37.33
2019-04-23T10:37:32.884Z,37.15
2019-04-23T10:39:56.664Z,37.34
2019-04-23T10:42:22.602Z,37.08
2019-04-23T10:45:08.105Z,38.67
2019-04-23T10:50:59.577Z,36.41
2019-04-23T10:53:29.679Z,36.87
2019-04-23T10:56:00.725Z,36.69
2019-04-23T10:58:31.772Z,36.64
2019-04-23T11:01:04.229Z,36.61
2019-04-23T11:03:53.962Z,36.00
2019-04-23T11:06:06.728Z,36.17
2019-04-23T11:08:31.222Z,36.01
2019-04-23T11:11:07.843Z,34.62
2019-04-23T11:13:56.569Z,35.22
2019-04-23T11:18:53.535Z,35.74
2019-04-23T11:21:17.896Z,35.10
2019-04-23T11:23:40.905Z,35.21
2019-04-23T11:26:17.337Z,36.44
2019-04-23T11:28:38.374Z,35.16
2019-04-23T11:31:23.876Z,34.88
2019-04-23T11:33:42.967Z,34.75
2019-04-23T11:38:54.422Z,34.40
2019-04-23T11:41:22.599Z,34.37
2019-04-23T11:43:48.958Z,34.13
2019-04-23T11:46:34.327Z,34.38
2019-04-23T11:53:47.729Z,34.45
2019-04-23T11:58:45.774Z,34.08
2019-04-23T12:01:38.672Z,33.71
2019-04-23T12:04:14.128Z,33.86
2019-04-23T12:06:50.879Z,33.88
2019-04-23T12:09:33.777Z,33.44
2019-04-23T12:11:58.451Z,33.41
2019-04-23T12:14:35.225Z,33.14
2019-04-23T12:17:15.251Z,32.70
2019-04-23T12:19:52.173Z,32.98
2019-04-23T12:24:58.580Z,33.14
2019-04-23T12:27:06.187Z,33.35
2019-04-23T12:29:44.537Z,32.75
2019-04-23T12:32:35.613Z,33.43
2019-04-23T12:35:01.311Z,33.13
2019-04-23T12:37:29.716Z,32.94
2019-04-23T12:40:00.456Z,33.02
2019-04-23T12:42:43.660Z,32.31
2019-04-23T12:45:07.006Z,31.92
2019-04-23T12:47:41.168Z,32.96
2019-04-23T12:50:29.733Z,32.83
2019-04-23T12:52:34.396Z,32.37
2019-04-23T12:57:29.961Z,32.83
2019-04-23T12:59:58.414Z,32.26
2019-04-23T13:02:40.210Z,32.52
2019-04-23T13:07:36.809Z,32.62
2019-04-23T13:10:06.379Z,32.00
2019-04-23T13:17:40.321Z,30.79
2019-04-23T13:20:00.684Z,30.59
2019-04-23T13:22:52.041Z,30.07
2019-04-23T13:25:05.071Z,30.07
2019-04-23T13:27:42.347Z,29.64
2019-04-23T13:30:06.743Z,29.89
2019-04-23T13:32:38.841Z,29.97
2019-04-23T13:40:10.897Z,29.27
2019-04-23T13:42:45.346Z,28.73
2019-04-23T13:47:47.159Z,28.41
2019-04-23T13:53:07.906Z,28.26
2019-04-23T13:55:09.084Z,28.12
2019-04-23T13:58:05.086Z,28.07
2019-04-23T14:00:14.197Z,28.26
2019-04-23T14:02:43.870Z,28.59
2019-04-23T14:05:12.694Z,28.50
2019-04-23T14:07:49.937Z,28.36
2019-04-23T14:10:24.489Z,27.71
2019-04-23T14:12:53.413Z,27.66
2019-04-23T14:15:32.231Z,27.49
2019-04-23T14:20:21.557Z,27.10
2019-04-23T14:23:08.368Z,27.29
2019-04-23T14:25:18.778Z,26.96
2019-04-23T14:27:57.763Z,26.81
2019-04-23T14:30:29.515Z,26.87
2019-04-23T14:32:53.704Z,26.93
2019-04-23T14:35:40.087Z,27.17
2019-04-23T14:38:09.810Z,27.40
2019-04-23T14:43:12.169Z,27.59
2019-04-23T14:45:44.831Z,27.34
2019-04-23T14:48:10.444Z,27.13
2019-04-23T14:55:55.706Z,26.78
2019-04-23T14:58:18.117Z,26.61
2019-04-23T15:01:04.688Z,26.25
2019-04-23T15:03:25.275Z,25.79
2019-04-23T15:05:45.981Z,26.18
2019-04-23T15:08:15.626Z,26.25
2019-04-23T15:11:05.249Z,26.70
2019-04-23T15:13:14.747Z,26.59
2019-04-23T15:15:51.535Z,26.59
2019-04-23T15:18:37.926Z,26.54
2019-04-23T15:21:19.141Z,26.36
2019-04-23T15:26:50.946Z,26.94
2019-04-23T15:28:10.297Z,26.94
2019-04-23T15:31:09.621Z,26.89
2019-04-23T15:33:48.968Z,26.85
2019-04-23T15:41:13.872Z,27.08
2019-04-23T15:43:49.527Z,27.46
2019-04-23T15:46:21.650Z,27.93
2019-04-23T15:48:57.547Z,28.54
2019-04-23T15:51:26.454Z,29.55
2019-04-23T15:53:46.400Z,30.12
2019-04-23T15:56:33.014Z,30.86
2019-04-23T15:59:13.688Z,31.04
2019-04-23T16:03:24.337Z,31.26
2019-04-23T16:05:53.015Z,31.75
2019-04-23T16:09:00.410Z,31.85
2019-04-23T16:11:32.834Z,31.68
2019-04-23T16:14:15.699Z,32.00
2019-04-23T16:16:30.008Z,32.35
2019-04-23T16:19:05.928Z,32.55
2019-04-23T16:21:44.553Z,33.04
2019-04-23T16:24:00.736Z,33.52
2019-04-23T16:26:31.145Z,34.02
2019-04-23T16:31:34.912Z,34.91
2019-04-23T16:34:12.217Z,35.28
2019-04-23T16:36:41.473Z,35.78
2019-04-23T16:39:07.474Z,35.87
2019-04-23T16:41:40.235Z,36.12
2019-04-23T16:44:16.890Z,36.37
2019-04-23T16:46:39.125Z,36.38
2019-04-23T16:49:17.848Z,36.58
2019-04-23T16:54:15.233Z,36.98
2019-04-23T16:56:56.068Z,37.23
2019-04-23T16:59:15.351Z,37.17
2019-04-23T17:01:44.346Z,37.21
2019-04-23T17:04:18.212Z,37.27
2019-04-23T17:06:48.954Z,37.11
2019-04-23T17:09:19.743Z,37.16
2019-04-23T17:11:42.578Z,37.23
2019-04-23T17:14:13.564Z,37.25
2019-04-23T17:16:38.100Z,37.35
2019-04-23T17:19:17.841Z,37.10
2019-04-23T17:21:44.057Z,36.99
2019-04-23T17:24:20.863Z,36.69
2019-04-23T17:26:45.143Z,36.40
2019-04-23T17:31:42.315Z,36.76
2019-04-23T17:34:27.282Z,36.95
2019-04-23T17:37:00.645Z,36.83
2019-04-23T17:39:20.890Z,36.91
2019-04-23T17:42:05.493Z,37.15
2019-04-23T17:44:33.396Z,37.33
2019-04-23T17:47:08.695Z,37.58
2019-04-23T17:49:33.887Z,37.96
2019-04-23T17:52:04.356Z,38.30
2019-04-23T17:54:35.948Z,38.92
2019-04-23T17:57:10.698Z,39.25
2019-04-23T18:00:16.013Z,39.13
2019-04-23T18:05:02.575Z,39.52
2019-04-23T18:07:38.321Z,39.87
2019-04-23T18:10:09.904Z,40.03
2019-04-23T18:14:50.887Z,40.58
2019-04-23T18:17:26.647Z,40.75
2019-04-23T18:19:56.359Z,41.16
2019-04-23T18:22:35.801Z,41.74
2019-04-23T18:25:13.482Z,41.58
2019-04-23T18:27:38.902Z,41.80
2019-04-23T18:30:16.073Z,41.90
2019-04-23T18:32:59.754Z,42.29
2019-04-23T18:35:28.250Z,42.54
2019-04-23T18:37:46.391Z,42.88
2019-04-23T18:40:08.542Z,43.25
2019-04-23T18:45:18.899Z,43.71
2019-04-23T18:47:46.536Z,44.13
2019-04-23T18:50:26.847Z,44.34
2019-04-23T18:55:29.246Z,44.75
2019-04-23T18:57:48.674Z,45.02
2019-04-23T19:00:21.384Z,45.46
2019-04-23T19:03:04.113Z,45.83
2019-04-23T19:05:39.609Z,46.39
2019-04-23T19:10:48.309Z,46.74
2019-04-23T19:13:18.803Z,46.93
2019-04-23T19:18:19.212Z,47.23
2019-04-23T19:21:08.000Z,47.54
2019-04-23T19:25:43.776Z,47.79
2019-04-23T19:28:38.809Z,47.99
2019-04-23T19:30:53.572Z,47.96
2019-04-23T19:33:36.713Z,48.15
2019-04-23T19:41:00.170Z,48.57
2019-04-23T19:43:39.172Z,48.75
2019-04-23T19:46:05.638Z,48.91
2019-04-23T19:48:33.480Z,49.04
2019-04-23T19:51:03.135Z,49.35
2019-04-23T19:53:47.085Z,49.67
2019-04-23T19:56:09.007Z,50.04
2019-04-23T19:58:42.445Z,50.20
2019-04-23T20:03:43.703Z,50.57
2019-04-23T20:06:27.297Z,51.16
2019-04-23T20:08:46.313Z,51.09
2019-04-23T20:11:02.874Z,51.18
2019-04-23T20:13:49.552Z,51.41
2019-04-23T20:18:47.798Z,51.98
2019-04-23T20:21:03.524Z,52.36
2019-04-23T20:24:02.938Z,52.35
2019-04-23T20:26:13.432Z,52.53
2019-04-23T20:29:14.848Z,52.63
2019-04-23T20:34:24.422Z,52.83
2019-04-23T20:36:38.522Z,53.11
2019-04-23T20:39:14.297Z,53.39
2019-04-23T20:42:07.779Z,53.74
2019-04-23T20:44:36.171Z,53.91
2019-04-23T20:47:01.914Z,54.00
2019-04-23T20:49:28.730Z,54.46
2019-04-23T20:52:00.418Z,54.72
2019-04-23T20:54:35.478Z,54.91
2019-04-23T20:57:23.946Z,55.33
2019-04-23T20:59:49.816Z,55.18
2019-04-23T21:02:28.385Z,55.29
2019-04-23T21:05:01.462Z,55.57
2019-04-23T21:07:17.223Z,55.90
2019-04-23T21:10:01.243Z,56.42
2019-04-23T21:12:27.840Z,56.30
2019-04-23T21:17:29.692Z,56.91
2019-04-23T21:20:03.444Z,57.08
2019-04-23T21:24:51.477Z,57.67
2019-04-23T21:27:35.799Z,58.00
2019-04-23T21:32:35.406Z,58.45
2019-04-23T21:35:05.285Z,58.86
2019-04-23T21:37:32.635Z,59.00
2019-04-23T21:42:45.047Z,59.25
2019-04-23T21:44:59.008Z,59.23
2019-04-23T21:47:38.629Z,59.38
2019-04-23T21:50:11.912Z,59.42
2019-04-23T21:52:34.071Z,59.59
2019-04-23T21:57:44.369Z,60.13
2019-04-23T21:59:59.432Z,60.27
2019-04-23T22:02:54.765Z,60.21
2019-04-23T22:05:09.450Z,60.22
2019-04-23T22:07:49.427Z,60.54
2019-04-23T22:10:12.133Z,60.56
2019-04-23T22:12:46.782Z,60.69
2019-04-23T22:15:04.612Z,60.69
2019-04-23T22:17:42.787Z,60.87
2019-04-23T22:20:26.469Z,61.09
2019-04-23T22:22:51.116Z,61.42
2019-04-23T22:25:07.417Z,61.41
2019-04-23T22:27:40.901Z,62.02
2019-04-23T22:30:06.098Z,61.76
2019-04-23T22:32:53.256Z,62.14
2019-04-23T22:35:11.798Z,62.93
2019-04-23T22:37:42.647Z,62.64
2019-04-23T22:40:10.251Z,62.93
2019-04-23T22:45:16.136Z,63.05
2019-04-23T22:47:47.865Z,63.81
2019-04-23T22:50:13.214Z,63.51
2019-04-23T22:52:48.304Z,63.55
2019-04-23T22:57:59.819Z,63.64
2019-04-23T23:03:01.748Z,64.16
2019-04-23T23:06:29.554Z,64.10
2019-04-23T23:08:55.841Z,64.29
2019-04-23T23:11:08.759Z,64.45
2019-04-23T23:13:58.685Z,64.27
2019-04-23T23:16:07.182Z,64.62
2019-04-23T23:18:40.436Z,64.44
2019-04-23T23:21:12.305Z,64.47
2019-04-23T23:28:41.347Z,63.92
2019-04-23T23:31:13.942Z,63.85
2019-04-23T23:33:47.415Z,63.69
2019-04-23T23:36:28.432Z,63.56
2019-04-23T23:38:57.430Z,63.49
2019-04-23T23:48:48.449Z,63.27
2019-04-23T23:53:59.672Z,62.94
2019-04-23T23:56:14.063Z,62.70
